Strathclair, Canada
Current Conditions -  °F | °C
As of 11:00 PM on Monday 22 Dec 2014 (Local Time) from CYBR Reporting Station
Overcast Overcast  
Wind Chill: 20°   Ceiling: 3100
Heat Index: 28°   Visibility: 12mi
Dew Point: 27°   Wind: 8mph
Humidity: 93%   Direction: 30°NNE
Pressure: 29.88"   Gusts: NA
Location:  50.4°N, 100.4°W
Report Text: CYBR 230500Z 03007KT 12SM FEW009 OVC031 M02/M03 A2988 RMK SF1SC7 BR SLP143
Loading
Personal Weather Stations






























Interactive Weather Map New forecast layout! Learn more

10-Day Weather Forecast

Advertisements
Track Severe Weather on mobile